Drexel, Missouri
Current Conditions -  °F | °C
As of 11:53 PM on Tuesday 21 Oct 2014 (Local Time) from KOJC Reporting Station
Clear Clear  
Wind Chill: 57°   Ceiling: Unl
Heat Index: 57°   Visibility: 10mi
Dew Point: 44°   Wind: 6mph
Humidity: 62%   Direction: 130°SE
Pressure: 30.11"   Gusts: NA
Location:  38.48°N, 94.61°W
Report Text: KOJC 220453Z AUTO 13005KT 10SM CLR 14/07 A3011 RMK AO2 SLP190 T01390067
Loading
Personal Weather Stations






























Interactive Weather Map
Tropical Storm Tracking
New forecast layout! Learn more

10-Day Weather Forecast

Advertisements
Track Severe Weather on mobile